Time;durP1;ratioP1;P1;durP2;ratioP2;P2;SDS_P1;SDS_P2;PMS_P1;PMS_P2;Temp;Humidity;BMP_temperature;BMP_pressure;BME280_temperature;BME280_humidity;BME280_pressure;Samples;Min_cycle;Max_cycle;Signal;HPM_P1;HPM_P2
2021/03/06 00:01:00;;;;;;;19.02;13.50;;;10.50;96.70;;;;;;5054746;28;20040;-72
2021/03/06 00:03:29;;;;;;;20.67;13.10;;;10.50;96.70;;;;;;5052510;28;20533;-72
2021/03/06 00:05:57;;;;;;;19.48;13.95;;;10.50;96.70;;;;;;5051240;28;20549;-72
2021/03/06 00:08:25;;;;;;;18.70;13.30;;;10.40;96.70;;;;;;5056729;28;20040;-72
2021/03/06 00:10:55;;;;;;;23.38;14.23;;;10.50;96.70;;;;;;5040029;28;20143;-72
2021/03/06 00:13:24;;;;;;;21.13;13.52;;;10.50;96.70;;;;;;5037775;28;20167;-72
2021/03/06 00:15:54;;;;;;;20.40;14.02;;;10.50;96.70;;;;;;5058242;28;20488;-72
2021/03/06 00:18:23;;;;;;;19.85;13.57;;;10.50;96.70;;;;;;5051307;28;20048;-72
2021/03/06 00:20:50;;;;;;;21.38;13.82;;;10.60;96.70;;;;;;5041973;28;20140;-72
2021/03/06 00:23:18;;;;;;;22.23;13.57;;;10.60;96.70;;;;;;5055633;28;20064;-72
2021/03/06 00:25:46;;;;;;;19.25;13.43;;;10.40;96.70;;;;;;5050416;28;20670;-72
2021/03/06 00:28:13;;;;;;;19.00;12.75;;;10.20;96.70;;;;;;5051160;28;20056;-72
2021/03/06 00:30:41;;;;;;;20.77;13.27;;;10.10;96.70;;;;;;5052893;28;20244;-72
2021/03/06 00:33:09;;;;;;;18.58;12.55;;;10.20;96.70;;;;;;5054907;28;20040;-72
2021/03/06 00:35:37;;;;;;;19.15;13.38;;;10.30;96.70;;;;;;5059149;28;20045;-72
2021/03/06 00:38:05;;;;;;;17.27;12.65;;;10.20;96.70;;;;;;5058385;28;20409;-72
2021/03/06 00:40:32;;;;;;;18.45;13.80;;;10.10;96.70;;;;;;5057056;28;20064;-72
2021/03/06 00:43:00;;;;;;;20.55;14.68;;;10.00;96.70;;;;;;5054206;28;20043;-72
2021/03/06 00:45:29;;;;;;;22.33;14.27;;;10.10;96.70;;;;;;5061035;28;20481;-72
2021/03/06 00:47:56;;;;;;;21.10;13.75;;;10.20;96.70;;;;;;5054037;28;20039;-72
2021/03/06 00:50:29;;;;;;;23.80;14.77;;;10.20;96.70;;;;;;5054866;28;20041;-72
2021/03/06 00:53:01;;;;;;;19.85;15.18;;;10.10;96.70;;;;;;5050781;28;20045;-72
2021/03/06 00:55:30;;;;;;;21.30;15.15;;;10.20;96.70;;;;;;5032999;28;20037;-72
2021/03/06 00:57:58;;;;;;;27.50;15.38;;;10.20;96.70;;;;;;5049933;28;20041;-72
2021/03/06 01:00:26;;;;;;;20.48;14.02;;;10.20;96.70;;;;;;5052335;28;20086;-72
2021/03/06 01:02:56;;;;;;;21.90;15.15;;;10.10;96.70;;;;;;5051713;28;20471;-72
2021/03/06 01:05:24;;;;;;;24.25;15.50;;;10.20;96.70;;;;;;5055715;28;20409;-72
2021/03/06 01:07:52;;;;;;;24.25;15.85;;;10.10;96.70;;;;;;5033345;28;20042;-72
2021/03/06 01:10:26;;;;;;;22.10;15.18;;;10.10;96.70;;;;;;5060873;28;20047;-72
2021/03/06 01:12:55;;;;;;;25.02;16.23;;;10.10;96.70;;;;;;5054059;28;20131;-72
2021/03/06 01:15:22;;;;;;;23.92;15.85;;;10.10;96.70;;;;;;5035513;28;20072;-72
2021/03/06 01:17:50;;;;;;;22.23;14.40;;;10.10;96.70;;;;;;5056539;28;20041;-72
2021/03/06 01:20:17;;;;;;;19.75;13.98;;;10.00;96.70;;;;;;5052423;28;20036;-73
2021/03/06 01:22:45;;;;;;;19.83;13.95;;;10.10;96.70;;;;;;5055539;28;20041;-72
2021/03/06 01:25:13;;;;;;;16.70;13.05;;;10.10;96.70;;;;;;5053063;28;20110;-72
2021/03/06 01:27:42;;;;;;;18.45;13.05;;;10.10;96.70;;;;;;5037344;28;20049;-72
2021/03/06 01:30:11;;;;;;;19.75;14.10;;;9.90;96.70;;;;;;5036307;28;20458;-72
2021/03/06 01:32:38;;;;;;;19.88;13.77;;;9.90;96.70;;;;;;5049141;28;20050;-72
2021/03/06 01:35:06;;;;;;;21.95;13.40;;;9.90;96.70;;;;;;5035635;28;20397;-71
2021/03/06 01:37:34;;;;;;;16.98;13.48;;;9.90;96.70;;;;;;5049205;28;20048;-72
2021/03/06 01:40:01;;;;;;;19.45;14.38;;;9.80;96.70;;;;;;5055393;28;20028;-72
2021/03/06 01:42:29;;;;;;;21.80;14.13;;;9.90;96.70;;;;;;5043962;28;20045;-72
2021/03/06 01:44:57;;;;;;;20.90;14.45;;;9.90;96.70;;;;;;5057419;28;20155;-72
2021/03/06 01:47:24;;;;;;;22.40;14.43;;;9.90;96.70;;;;;;5072750;28;20040;-72
2021/03/06 01:49:52;;;;;;;20.38;14.20;;;10.00;96.70;;;;;;5054962;28;20105;-72
2021/03/06 01:52:19;;;;;;;18.50;14.23;;;9.80;96.70;;;;;;5051895;28;20123;-72
2021/03/06 01:54:56;;;;;;;20.35;14.23;;;9.70;96.70;;;;;;5055620;28;20047;-72
2021/03/06 01:57:24;;;;;;;18.98;13.20;;;9.60;96.70;;;;;;5070018;28;20040;-72
2021/03/06 01:59:52;;;;;;;17.92;12.95;;;9.70;96.70;;;;;;5077892;28;20437;-72
2021/03/06 02:02:20;;;;;;;19.77;14.18;;;9.90;96.70;;;;;;5036463;28;20091;-72
2021/03/06 02:04:48;;;;;;;19.10;13.57;;;9.80;96.70;;;;;;5072825;28;20159;-72
2021/03/06 02:07:15;;;;;;;17.38;12.15;;;9.80;96.70;;;;;;5038420;28;20041;-72
2021/03/06 02:09:43;;;;;;;16.40;11.68;;;9.90;96.70;;;;;;5055972;28;20704;-72
2021/03/06 02:12:19;;;;;;;16.63;12.90;;;10.00;96.70;;;;;;5056422;28;20040;-72
2021/03/06 02:14:57;;;;;;;18.27;12.23;;;10.00;96.70;;;;;;5074214;28;20118;-72
2021/03/06 02:17:32;;;;;;;15.75;11.70;;;10.00;96.70;;;;;;5075650;28;20521;-72
2021/03/06 02:20:22;;;;;;;14.82;11.07;;;9.90;96.70;;;;;;5053845;28;20043;-72
2021/03/06 02:23:08;;;;;;;15.38;12.00;;;9.90;96.70;;;;;;5055836;28;20063;-72
2021/03/06 02:26:01;;;;;;;17.55;11.75;;;10.00;96.70;;;;;;5034052;28;20041;-72
2021/03/06 02:28:40;;;;;;;15.50;11.15;;;9.90;96.70;;;;;;5054036;28;20129;-72
2021/03/06 02:31:10;;;;;;;15.82;11.27;;;9.70;96.70;;;;;;5071784;28;20040;-71
2021/03/06 02:33:40;;;;;;;15.80;11.77;;;9.60;96.70;;;;;;5051681;28;20036;-72
2021/03/06 02:36:13;;;;;;;14.20;10.18;;;9.60;96.70;;;;;;5055588;28;20485;-72
2021/03/06 02:38:42;;;;;;;16.85;11.15;;;9.60;96.70;;;;;;5034385;28;20052;-72
2021/03/06 02:41:13;;;;;;;15.63;10.80;;;9.60;96.70;;;;;;5053663;28;20049;-72
2021/03/06 02:43:42;;;;;;;14.90;10.27;;;9.70;96.70;;;;;;5069294;28;20494;-71
2021/03/06 02:46:10;;;;;;;16.83;10.32;;;9.80;96.70;;;;;;5053592;28;20060;-71
2021/03/06 02:48:38;;;;;;;18.80;10.52;;;9.90;96.70;;;;;;5047437;28;20052;-72
2021/03/06 02:51:06;;;;;;;13.60;10.05;;;9.90;96.70;;;;;;5055658;28;20033;-72
2021/03/06 02:53:33;;;;;;;17.70;10.40;;;9.90;96.70;;;;;;5055527;28;20494;-71
2021/03/06 02:56:00;;;;;;;13.93;10.68;;;9.80;96.70;;;;;;5055368;28;20052;-73
2021/03/06 02:58:45;;;;;;;16.48;10.90;;;9.90;96.70;;;;;;5049567;28;20040;-72
2021/03/06 03:01:22;;;;;;;12.73;9.70;;;9.80;96.70;;;;;;5038262;28;20048;-72
2021/03/06 03:03:52;;;;;;;;;;;9.90;96.70;;;;;;5053428;28;20569;-72
2021/03/06 03:06:26;;;;;;;17.00;10.82;;;9.90;96.70;;;;;;5049171;28;20022;-72
2021/03/06 03:09:05;;;;;;;16.13;10.93;;;9.90;96.70;;;;;;5045561;28;20734;-72
2021/03/06 03:11:39;;;;;;;17.90;10.90;;;9.80;96.70;;;;;;5052482;28;20033;-72
2021/03/06 03:14:13;;;;;;;18.42;10.52;;;9.80;96.70;;;;;;5050349;28;20040;-72
2021/03/06 03:16:46;;;;;;;15.60;11.35;;;9.90;96.70;;;;;;5039709;28;20048;-72
2021/03/06 03:19:23;;;;;;;16.02;10.95;;;9.80;96.70;;;;;;5049616;28;20097;-72
2021/03/06 03:21:53;;;;;;;14.45;10.95;;;9.80;96.70;;;;;;5029721;28;20041;-72
2021/03/06 03:24:23;;;;;;;13.70;10.52;;;9.90;96.70;;;;;;5032210;28;20172;-72
2021/03/06 03:26:52;;;;;;;15.27;11.35;;;9.90;96.70;;;;;;5056304;28;20036;-72
2021/03/06 03:29:19;;;;;;;16.50;12.13;;;9.80;96.70;;;;;;5058972;28;20071;-72
2021/03/06 03:31:49;;;;;;;17.90;12.43;;;9.80;96.70;;;;;;5036839;28;20036;-72
2021/03/06 03:34:20;;;;;;;16.35;11.10;;;9.60;96.70;;;;;;5046247;28;20032;-72
2021/03/06 03:36:49;;;;;;;18.33;11.73;;;9.70;96.70;;;;;;5051299;28;20049;-72
2021/03/06 03:39:16;;;;;;;19.63;12.65;;;9.70;96.70;;;;;;5056353;28;20048;-72
2021/03/06 03:41:45;;;;;;;19.35;13.35;;;9.60;96.70;;;;;;5050390;28;20506;-72
2021/03/06 03:44:15;;;;;;;17.05;12.77;;;9.60;96.70;;;;;;5029000;28;20040;-72
2021/03/06 03:46:42;;;;;;;16.98;12.50;;;9.50;96.70;;;;;;5048037;28;20140;-72
2021/03/06 03:49:14;;;;;;;17.77;12.48;;;9.40;96.70;;;;;;5054842;28;20569;-72
2021/03/06 03:51:42;;;;;;;13.80;11.20;;;9.50;96.70;;;;;;5048318;28;20040;-72
2021/03/06 03:54:10;;;;;;;19.00;12.85;;;9.60;96.70;;;;;;5055557;28;20048;-72
2021/03/06 03:56:37;;;;;;;16.20;11.07;;;9.40;96.70;;;;;;5052751;28;20413;-72
2021/03/06 03:59:06;;;;;;;19.02;11.15;;;9.40;96.70;;;;;;5051960;28;20036;-72
2021/03/06 04:01:41;;;;;;;16.55;11.32;;;9.40;96.70;;;;;;5050149;28;20393;-72
2021/03/06 04:04:23;;;;;;;18.55;11.30;;;9.30;96.70;;;;;;5051118;28;20795;-71
2021/03/06 04:06:50;;;;;;;15.95;11.48;;;9.30;96.70;;;;;;5048809;28;20093;-72
2021/03/06 04:09:17;;;;;;;15.40;10.70;;;9.40;96.70;;;;;;5048278;28;20040;-72
2021/03/06 04:11:45;;;;;;;13.63;10.10;;;9.40;96.70;;;;;;5052044;28;20143;-72
2021/03/06 04:14:12;;;;;;;15.55;10.43;;;9.40;96.70;;;;;;5053592;28;20044;-72
2021/03/06 04:16:39;;;;;;;14.02;9.90;;;9.30;96.70;;;;;;5053239;28;20125;-71
2021/03/06 04:19:07;;;;;;;14.23;10.10;;;9.40;96.70;;;;;;5052515;28;20041;-72
2021/03/06 04:21:35;;;;;;;14.98;9.63;;;9.40;96.70;;;;;;5031353;28;20052;-72
2021/03/06 04:24:02;;;;;;;13.25;9.15;;;9.50;96.70;;;;;;5046328;28;20040;-72
2021/03/06 04:26:49;;;;;;;13.07;9.48;;;9.40;96.70;;;;;;5050541;28;20134;-72
2021/03/06 04:29:18;;;;;;;16.08;9.95;;;9.40;96.70;;;;;;5049571;28;20041;-72
2021/03/06 04:31:45;;;;;;;18.13;9.93;;;9.30;96.70;;;;;;5049624;28;20816;-72
2021/03/06 04:34:12;;;;;;;13.30;9.88;;;9.30;96.70;;;;;;5054075;28;20061;-72
2021/03/06 04:36:41;;;;;;;13.25;9.95;;;9.20;96.70;;;;;;5055621;28;20452;-72
2021/03/06 04:39:08;;;;;;;12.98;9.45;;;9.10;96.70;;;;;;5055116;28;20437;-72
2021/03/06 04:41:36;;;;;;;13.77;10.23;;;9.10;96.70;;;;;;5050025;28;20033;-72
2021/03/06 04:44:05;;;;;;;13.35;10.40;;;9.10;96.70;;;;;;5053561;28;20464;-72
2021/03/06 04:46:32;;;;;;;14.90;10.18;;;9.10;96.70;;;;;;5070639;28;20460;-71
2021/03/06 04:49:02;;;;;;;15.43;10.05;;;9.20;96.70;;;;;;5052665;28;20044;-72
2021/03/06 04:51:30;;;;;;;14.02;10.00;;;9.20;96.70;;;;;;5054460;28;20045;-72
2021/03/06 04:53:59;;;;;;;14.98;10.48;;;9.20;96.70;;;;;;5053907;28;20033;-72
2021/03/06 04:56:26;;;;;;;11.85;9.20;;;9.20;96.70;;;;;;5055367;28;20055;-72
2021/03/06 04:58:53;;;;;;;14.63;9.85;;;9.20;96.70;;;;;;5051497;28;20156;-72
2021/03/06 05:01:21;;;;;;;11.55;9.88;;;9.10;96.70;;;;;;5043005;28;20044;-72
2021/03/06 05:03:49;;;;;;;16.58;11.30;;;9.00;96.70;;;;;;5052966;28;20033;-72
2021/03/06 05:06:16;;;;;;;14.98;10.55;;;8.90;96.70;;;;;;5051255;28;20052;-72
2021/03/06 05:08:43;;;;;;;14.48;10.93;;;8.80;96.70;;;;;;5055356;28;20037;-71
2021/03/06 05:11:12;;;;;;;17.27;12.23;;;8.80;96.70;;;;;;5053215;28;20047;-72
2021/03/06 05:13:39;;;;;;;16.55;11.48;;;8.80;96.70;;;;;;5055142;28;20048;-71
2021/03/06 05:16:06;;;;;;;14.35;10.82;;;8.80;96.70;;;;;;5053917;28;20060;-72
2021/03/06 05:18:34;;;;;;;13.90;10.90;;;8.80;96.70;;;;;;5054852;28;20037;-71
2021/03/06 05:21:02;;;;;;;20.40;11.45;;;8.80;96.70;;;;;;5048654;28;20032;-72
2021/03/06 05:23:29;;;;;;;17.15;10.60;;;8.80;96.70;;;;;;5049887;28;20098;-72
2021/03/06 05:25:57;;;;;;;16.23;10.90;;;8.70;96.70;;;;;;5049978;28;20052;-72
2021/03/06 05:28:25;;;;;;;16.00;10.90;;;8.80;96.70;;;;;;5050742;28;20041;-72
2021/03/06 05:30:52;;;;;;;16.15;11.38;;;8.80;96.70;;;;;;5054371;28;20115;-72
2021/03/06 05:33:21;;;;;;;20.00;10.98;;;8.80;96.70;;;;;;5056588;28;20031;-72
2021/03/06 05:35:49;;;;;;;13.70;10.60;;;8.80;96.70;;;;;;5049811;28;20120;-71
2021/03/06 05:38:16;;;;;;;18.60;10.82;;;8.80;96.70;;;;;;5049055;28;20041;-72
2021/03/06 05:40:46;;;;;;;15.00;10.32;;;8.80;96.70;;;;;;5035232;28;20119;-72
2021/03/06 05:43:14;;;;;;;16.20;10.25;;;8.80;96.70;;;;;;5049545;28;20039;-72
2021/03/06 05:45:46;;;;;;;16.33;10.48;;;9.00;96.70;;;;;;5062536;28;20086;-72
2021/03/06 05:48:15;;;;;;;15.25;10.68;;;9.00;96.70;;;;;;5039550;28;20157;-72
2021/03/06 05:50:43;;;;;;;15.00;10.50;;;8.90;96.70;;;;;;5050059;28;20074;-72
2021/03/06 05:53:13;;;;;;;15.85;10.85;;;9.00;96.70;;;;;;5057256;28;20507;-72
2021/03/06 05:55:42;;;;;;;15.02;10.00;;;9.00;96.70;;;;;;5075971;28;20047;-72
2021/03/06 05:58:10;;;;;;;17.63;11.02;;;9.00;96.70;;;;;;5072657;28;20565;-72
2021/03/06 06:00:41;;;;;;;13.65;10.25;;;9.10;96.70;;;;;;5057368;28;20144;-72
2021/03/06 06:03:10;;;;;;;15.05;11.05;;;9.00;96.70;;;;;;5054033;28;20048;-72
2021/03/06 06:05:38;;;;;;;14.30;10.13;;;9.00;96.70;;;;;;5051871;28;20067;-72
2021/03/06 06:08:06;;;;;;;14.20;10.13;;;9.00;96.70;;;;;;5055839;28;20058;-72
2021/03/06 06:10:35;;;;;;;16.70;11.32;;;9.00;96.70;;;;;;5036639;28;20116;-71
2021/03/06 06:13:03;;;;;;;18.35;11.25;;;9.00;96.70;;;;;;5056334;28;20036;-72
2021/03/06 06:15:30;;;;;;;14.35;10.45;;;9.10;96.70;;;;;;5076047;28;20036;-73
2021/03/06 06:17:58;;;;;;;17.40;11.00;;;9.00;96.70;;;;;;5049073;28;20050;-72
2021/03/06 06:20:27;;;;;;;18.58;11.18;;;8.90;96.70;;;;;;5051359;28;20039;-72
2021/03/06 06:23:10;;;;;;;17.70;10.57;;;8.90;96.70;;;;;;5054557;28;20055;-73
2021/03/06 06:25:42;;;;;;;14.38;10.48;;;8.90;96.70;;;;;;5070102;28;20048;-72
2021/03/06 06:28:19;;;;;;;17.05;10.27;;;8.90;96.70;;;;;;5070053;28;20051;-72
2021/03/06 06:31:09;;;;;;;19.38;11.13;;;9.00;96.70;;;;;;5052535;28;20047;-72
2021/03/06 06:33:37;;;;;;;17.02;10.35;;;9.10;96.70;;;;;;5067876;28;20098;-72
2021/03/06 06:36:06;;;;;;;17.30;10.07;;;9.20;96.70;;;;;;5069234;28;20115;-72
2021/03/06 06:38:44;;;;;;;15.38;11.43;;;9.10;96.70;;;;;;5053567;28;20505;-72
2021/03/06 06:41:12;;;;;;;14.30;9.95;;;9.20;96.70;;;;;;5059722;28;20082;-72
2021/03/06 06:43:39;;;;;;;18.00;10.43;;;9.40;96.70;;;;;;5053114;28;20039;-72
2021/03/06 06:46:08;;;;;;;16.55;10.23;;;9.50;96.70;;;;;;5070512;28;20130;-72
2021/03/06 06:48:55;;;;;;;16.52;10.35;;;9.50;96.70;;;;;;5074769;28;20067;-72
2021/03/06 06:51:23;;;;;;;;;;;9.60;96.70;;;;;;5062622;28;20040;-72
2021/03/06 06:53:51;;;;;;;17.77;11.20;;;9.60;96.70;;;;;;5061515;28;20005;-73
2021/03/06 06:56:25;;;;;;;13.85;9.57;;;9.60;96.70;;;;;;5069191;28;20396;-72
2021/03/06 06:59:03;;;;;;;14.50;10.93;;;9.70;96.70;;;;;;5033237;28;20585;-75
2021/03/06 07:01:32;;;;;;;16.13;10.43;;;9.80;96.70;;;;;;5076337;28;20032;-73
2021/03/06 07:04:02;;;;;;;17.08;10.57;;;9.90;96.70;;;;;;5068242;28;20032;-72
2021/03/06 07:06:31;;;;;;;13.38;10.70;;;9.90;96.70;;;;;;5039490;28;20355;-73
2021/03/06 07:09:08;;;;;;;14.52;11.25;;;10.10;96.70;;;;;;5033471;28;20082;-73
2021/03/06 07:11:37;;;;;;;19.85;12.00;;;10.20;96.70;;;;;;5060925;28;20036;-74
2021/03/06 07:14:05;;;;;;;23.70;14.68;;;10.30;96.70;;;;;;5053864;28;20512;-73
2021/03/06 07:16:56;;;;;;;19.15;13.65;;;10.30;96.70;;;;;;5059855;28;20497;-74
2021/03/06 07:19:30;;;;;;;20.27;14.13;;;10.30;96.70;;;;;;5056386;28;20440;-72
2021/03/06 07:21:59;;;;;;;18.85;12.68;;;10.30;96.70;;;;;;5081264;28;20503;-73
2021/03/06 07:24:27;;;;;;;19.30;14.02;;;10.40;96.70;;;;;;5046429;28;20075;-74
2021/03/06 07:26:56;;;;;;;16.73;12.05;;;10.60;96.70;;;;;;5072075;28;20380;-74
2021/03/06 07:29:25;;;;;;;15.35;12.10;;;10.70;96.70;;;;;;5044800;28;20051;-73
2021/03/06 07:31:54;;;;;;;19.88;12.23;;;10.80;96.70;;;;;;5023477;28;20589;-74
2021/03/06 07:34:24;;;;;;;15.98;12.43;;;10.90;96.70;;;;;;5073030;28;20036;-73
2021/03/06 07:36:58;;;;;;;18.65;12.02;;;10.90;96.70;;;;;;5071384;28;20535;-73
2021/03/06 07:39:34;;;;;;;16.45;11.20;;;11.00;96.70;;;;;;5070047;28;20055;-73
2021/03/06 07:42:03;;;;;;;14.90;10.48;;;11.00;96.70;;;;;;5052436;28;20505;-74
2021/03/06 07:44:32;;;;;;;15.70;10.27;;;11.10;96.70;;;;;;5056605;28;20067;-74
2021/03/06 07:47:00;;;;;;;18.05;10.35;;;11.20;96.70;;;;;;5049747;28;20046;-74
2021/03/06 07:49:32;;;;;;;13.30;8.13;;;11.20;96.70;;;;;;5075249;28;20032;-74
2021/03/06 07:52:01;;;;;;;11.95;8.10;;;11.30;96.70;;;;;;5057566;28;20040;-74
2021/03/06 07:54:32;;;;;;;11.50;7.22;;;11.40;96.70;;;;;;5052432;28;20052;-74
2021/03/06 07:56:59;;;;;;;14.88;7.38;;;11.50;96.70;;;;;;5053663;28;20643;-74
2021/03/06 07:59:49;;;;;;;9.90;6.68;;;11.50;96.70;;;;;;5071465;28;20052;-75
2021/03/06 08:02:37;;;;;;;11.10;6.88;;;11.60;96.70;;;;;;5058691;28;20114;-74
2021/03/06 08:05:07;;;;;;;9.98;5.80;;;11.70;96.70;;;;;;5053458;28;20044;-74
2021/03/06 08:07:44;;;;;;;7.35;5.40;;;11.80;96.70;;;;;;5052627;28;20051;-73
2021/03/06 08:10:13;;;;;;;6.68;4.78;;;11.80;96.70;;;;;;5072195;28;20844;-74
2021/03/06 08:12:41;;;;;;;6.78;4.60;;;11.90;96.70;;;;;;5054430;28;20121;-76
2021/03/06 08:15:27;;;;;;;6.60;4.80;;;11.90;96.70;;;;;;5056499;28;20036;-73
2021/03/06 08:17:56;;;;;;;8.20;5.05;;;12.00;96.70;;;;;;5063816;28;20166;-74
2021/03/06 08:20:28;;;;;;;9.20;4.90;;;12.00;96.70;;;;;;5059724;28;20763;-77
2021/03/06 08:23:20;;;;;;;6.10;3.90;;;12.00;96.70;;;;;;5076751;28;20380;-76
2021/03/06 08:26:09;;;;;;;5.95;3.60;;;12.00;96.70;;;;;;5058189;28;20049;-75
2021/03/06 08:28:37;;;;;;;5.60;2.50;;;12.10;96.70;;;;;;5061342;28;20048;-75
2021/03/06 08:31:34;;;;;;;5.35;2.65;;;12.10;96.70;;;;;;5038119;28;20048;-74
2021/03/06 08:34:31;;;;;;;2.70;1.65;;;12.20;96.70;;;;;;5057585;28;20699;-75
2021/03/06 08:37:28;;;;;;;2.90;1.63;;;12.20;96.70;;;;;;5045582;28;20173;-74
2021/03/06 08:39:59;;;;;;;3.42;1.45;;;12.20;96.70;;;;;;5074742;28;20117;-74
2021/03/06 08:42:28;;;;;;;2.75;1.00;;;12.20;96.70;;;;;;5058039;28;20039;-74
2021/03/06 08:44:58;;;;;;;1.23;0.90;;;12.10;96.70;;;;;;5075860;28;20044;-74
2021/03/06 08:47:26;;;;;;;2.53;0.77;;;12.10;96.70;;;;;;5060483;28;20040;-74
2021/03/06 08:49:56;;;;;;;1.65;0.77;;;12.20;96.70;;;;;;5038570;28;20049;-74
2021/03/06 08:52:24;;;;;;;1.20;0.90;;;12.20;96.60;;;;;;5043934;28;20052;-74
2021/03/06 08:54:52;;;;;;;1.67;0.80;;;12.20;96.20;;;;;;5063881;28;20135;-74
2021/03/06 08:57:26;;;;;;;1.63;1.00;;;12.20;96.50;;;;;;5063678;28;20122;-74
2021/03/06 09:00:08;;;;;;;;;;;12.30;96.00;;;;;;5059356;28;20118;-74
2021/03/06 09:02:36;;;;;;;2.35;1.40;;;12.30;96.30;;;;;;5060746;28;19935;-73
2021/03/06 09:05:09;;;;;;;4.38;0.80;;;12.30;95.70;;;;;;5053428;28;20081;-74
2021/03/06 09:07:38;;;;;;;2.08;0.80;;;12.30;95.70;;;;;;5077397;28;20214;-77
2021/03/06 09:10:23;;;;;;;2.53;1.10;;;12.30;95.80;;;;;;5041756;28;20127;-78
2021/03/06 09:12:54;;;;;;;114.05;84.18;;;12.40;96.10;;;;;;5057185;28;20051;-76
2021/03/06 09:15:26;;;;;;;10.80;7.97;;;12.40;96.00;;;;;;5054875;28;20055;-75
2021/03/06 09:17:54;;;;;;;5.18;3.47;;;12.40;95.60;;;;;;5070049;28;20718;-74
2021/03/06 09:20:22;;;;;;;3.47;1.48;;;12.50;95.80;;;;;;5054568;28;20028;-74
2021/03/06 09:22:52;;;;;;;3.53;2.47;;;12.50;95.40;;;;;;5052222;28;20036;-74
2021/03/06 09:25:30;;;;;;;3.17;2.28;;;12.40;95.40;;;;;;5055457;28;20599;-74
2021/03/06 09:28:00;;;;;;;4.13;2.33;;;12.40;94.70;;;;;;5072439;28;20043;-74
2021/03/06 09:30:36;;;;;;;3.83;1.65;;;12.30;95.10;;;;;;5056522;28;20509;-74
2021/03/06 09:33:24;;;;;;;2.28;1.40;;;12.30;95.60;;;;;;5055340;28;20124;-74
2021/03/06 09:35:56;;;;;;;2.88;1.65;;;12.30;95.60;;;;;;5056716;28;20306;-74
2021/03/06 09:38:24;;;;;;;2.72;0.90;;;12.40;95.80;;;;;;5070297;28;20464;-75
2021/03/06 09:40:55;;;;;;;2.40;1.05;;;12.40;95.40;;;;;;5051557;28;20622;-74
2021/03/06 09:43:31;;;;;;;2.13;0.93;;;12.40;95.70;;;;;;5043106;28;20040;-74
2021/03/06 09:46:00;;;;;;;2.55;1.02;;;12.50;95.40;;;;;;5054914;28;20389;-74
2021/03/06 09:48:29;;;;;;;4.18;1.10;;;12.60;94.60;;;;;;5056538;28;20051;-74
2021/03/06 09:50:58;;;;;;;2.13;0.80;;;12.70;94.60;;;;;;5059641;28;20128;-74
2021/03/06 09:53:28;;;;;;;0.85;0.57;;;12.70;94.00;;;;;;5075727;28;20036;-74
2021/03/06 09:56:09;;;;;;;2.20;1.00;;;12.80;93.40;;;;;;5051648;28;20216;-74
2021/03/06 09:58:39;;;;;;;2.42;0.85;;;12.90;93.50;;;;;;5054978;28;20047;-73
2021/03/06 10:01:17;;;;;;;3.15;1.20;;;13.10;92.60;;;;;;5042470;28;20044;-73
2021/03/06 10:03:45;;;;;;;2.70;1.00;;;13.30;92.40;;;;;;5052033;28;20126;-75
2021/03/06 10:06:15;;;;;;;1.35;0.82;;;13.50;91.90;;;;;;5054706;28;20047;-76
2021/03/06 10:08:47;;;;;;;2.15;0.85;;;13.70;91.80;;;;;;5039161;28;20048;-75
2021/03/06 10:11:26;;;;;;;2.50;0.98;;;13.90;90.90;;;;;;5051244;28;20044;-75
2021/03/06 10:13:56;;;;;;;1.40;0.63;;;13.90;90.30;;;;;;5060147;28;20139;-75
2021/03/06 10:16:24;;;;;;;0.68;0.40;;;13.80;90.40;;;;;;5072211;28;20036;-74
2021/03/06 10:18:53;;;;;;;1.40;0.68;;;13.70;90.20;;;;;;5072366;28;20048;-75
2021/03/06 10:21:22;;;;;;;1.00;0.40;;;13.50;90.10;;;;;;5037694;28;20521;-75
2021/03/06 10:23:59;;;;;;;5.45;0.63;;;13.20;90.50;;;;;;5020336;28;20091;-75
2021/03/06 10:26:29;;;;;;;1.70;0.60;;;13.10;91.10;;;;;;5049312;28;20565;-75
2021/03/06 10:29:19;;;;;;;1.75;0.70;;;13.00;91.50;;;;;;5077361;28;20112;-75
2021/03/06 10:31:55;;;;;;;2.72;0.50;;;13.00;91.70;;;;;;5044090;28;20569;-76
2021/03/06 10:34:29;;;;;;;1.75;0.60;;;13.00;91.70;;;;;;5071913;28;20086;-73
2021/03/06 10:37:13;;;;;;;1.58;0.50;;;13.10;91.30;;;;;;5053959;28;20063;-75
2021/03/06 10:39:53;;;;;;;2.05;0.70;;;13.20;91.20;;;;;;5054676;28;20085;-75
2021/03/06 10:42:21;;;;;;;1.30;0.68;;;13.30;90.30;;;;;;5071822;28;20036;-75
2021/03/06 10:44:50;;;;;;;2.92;1.00;;;13.40;89.90;;;;;;5055489;28;20071;-75
2021/03/06 10:47:18;;;;;;;2.33;0.90;;;13.60;89.90;;;;;;5072875;28;20500;-73
2021/03/06 10:49:52;;;;;;;2.15;0.88;;;13.80;88.80;;;;;;5035425;28;20036;-73
2021/03/06 10:52:28;;;;;;;1.40;0.65;;;13.90;88.30;;;;;;5071378;28;20036;-75
2021/03/06 10:54:57;;;;;;;1.33;0.80;;;14.10;88.00;;;;;;5055084;28;20518;-73
2021/03/06 10:57:25;;;;;;;14.63;10.13;;;14.20;87.80;;;;;;5069946;28;20067;-73
2021/03/06 10:59:54;;;;;;;2.47;1.77;;;14.30;87.40;;;;;;5050155;28;20449;-74
2021/03/06 11:02:24;;;;;;;5.07;2.60;;;14.50;87.50;;;;;;5062176;28;20040;-73
2021/03/06 11:04:54;;;;;;;3.35;1.83;;;14.50;87.00;;;;;;5054574;28;20044;-73
2021/03/06 11:07:27;;;;;;;1.75;1.30;;;14.50;87.00;;;;;;5036594;28;20051;-73
2021/03/06 11:09:57;;;;;;;1.73;1.00;;;14.70;87.00;;;;;;5038455;28;20051;-73
2021/03/06 11:12:28;;;;;;;1.42;0.90;;;14.70;86.00;;;;;;5061930;28;20048;-73
2021/03/06 11:15:08;;;;;;;1.58;0.82;;;14.70;86.10;;;;;;5051123;28;20090;-73
2021/03/06 11:17:37;;;;;;;1.15;0.70;;;14.80;85.60;;;;;;5055600;28;20478;-73
2021/03/06 11:20:08;;;;;;;4.15;0.80;;;14.80;85.30;;;;;;5069031;28;20093;-73
2021/03/06 11:22:36;;;;;;;1.45;0.60;;;14.90;84.90;;;;;;5070645;28;20048;-73
2021/03/06 11:25:08;;;;;;;2.53;1.02;;;14.80;84.90;;;;;;5055695;28;20490;-73
2021/03/06 11:27:46;;;;;;;4.80;0.70;;;14.80;85.50;;;;;;5035857;28;20064;-73
2021/03/06 11:30:20;;;;;;;2.03;0.88;;;14.80;85.00;;;;;;5056924;28;20616;-73
2021/03/06 11:32:49;;;;;;;1.00;0.60;;;14.70;85.30;;;;;;5069589;28;20346;-73
2021/03/06 11:35:18;;;;;;;2.05;0.75;;;14.70;84.70;;;;;;5055973;28;20131;-73
2021/03/06 11:37:46;;;;;;;2.55;1.10;;;14.70;84.90;;;;;;5055898;28;20067;-73
2021/03/06 11:40:16;;;;;;;1.85;0.85;;;14.70;85.00;;;;;;5051657;28;20123;-73
2021/03/06 11:42:45;;;;;;;2.58;0.70;;;14.80;84.80;;;;;;5075276;28;20428;-73
2021/03/06 11:45:16;;;;;;;1.50;0.80;;;14.90;84.90;;;;;;5074056;28;20049;-73
2021/03/06 11:47:46;;;;;;;1.95;0.90;;;15.00;84.30;;;;;;5039804;28;20143;-74
2021/03/06 11:50:17;;;;;;;2.05;0.70;;;15.20;84.20;;;;;;5041285;28;20163;-73
2021/03/06 11:52:45;;;;;;;2.40;0.60;;;15.20;83.30;;;;;;5071987;28;20033;-73
2021/03/06 11:55:13;;;;;;;1.73;0.90;;;15.20;83.70;;;;;;5064663;28;20036;-73
2021/03/06 11:57:43;;;;;;;2.58;1.58;;;15.40;83.70;;;;;;5075416;28;20517;-73
2021/03/06 12:00:13;;;;;;;1.67;0.90;;;15.70;83.50;;;;;;5078734;28;20207;-73
2021/03/06 12:02:42;;;;;;;1.60;0.90;;;15.80;83.60;;;;;;5073525;28;20072;-73
2021/03/06 12:05:13;;;;;;;2.92;0.90;;;15.90;82.70;;;;;;5084383;28;20032;-73
2021/03/06 12:07:44;;;;;;;2.05;0.82;;;15.90;81.90;;;;;;5077409;28;20443;-73
2021/03/06 12:10:14;;;;;;;2.80;0.50;;;15.70;82.00;;;;;;5062839;28;20461;-73
2021/03/06 12:12:44;;;;;;;2.10;0.70;;;15.70;82.50;;;;;;5079916;28;20043;-73
2021/03/06 12:15:14;;;;;;;1.88;0.63;;;15.80;81.80;;;;;;5072243;28;20048;-73
2021/03/06 12:17:43;;;;;;;1.63;0.70;;;15.90;81.50;;;;;;5060523;28;20075;-73
2021/03/06 12:20:12;;;;;;;1.40;0.68;;;16.10;81.60;;;;;;5076591;28;20056;-73
2021/03/06 12:22:39;;;;;;;1.48;0.73;;;16.10;81.50;;;;;;5036993;28;20127;-73
2021/03/06 12:25:08;;;;;;;1.58;0.57;;;16.10;81.40;;;;;;5056533;28;20047;-75
2021/03/06 12:27:36;;;;;;;3.00;0.85;;;16.00;81.30;;;;;;5076764;28;20857;-75
2021/03/06 12:30:06;;;;;;;1.50;0.90;;;16.10;81.00;;;;;;5060932;28;20039;-74
2021/03/06 12:32:34;;;;;;;1.77;0.60;;;16.10;81.00;;;;;;5057956;28;20045;-73
2021/03/06 12:35:06;;;;;;;1.23;0.80;;;16.10;81.00;;;;;;5055041;28;20040;-74
2021/03/06 12:37:33;;;;;;;2.05;0.93;;;16.20;81.10;;;;;;5059574;28;20075;-75
2021/03/06 12:40:01;;;;;;;3.05;0.60;;;16.30;81.20;;;;;;5051353;28;20120;-73
2021/03/06 12:42:29;;;;;;;2.05;0.80;;;16.40;80.60;;;;;;5061981;28;20162;-72
2021/03/06 12:44:56;;;;;;;2.47;0.50;;;16.50;80.90;;;;;;5072782;28;20079;-74
2021/03/06 12:47:23;;;;;;;1.73;0.60;;;16.50;80.10;;;;;;5055537;28;20167;-72
2021/03/06 12:49:52;;;;;;;2.33;0.80;;;16.50;79.80;;;;;;5061841;28;20318;-73
2021/03/06 12:52:20;;;;;;;2.45;0.73;;;16.60;79.70;;;;;;5056771;28;20039;-71
2021/03/06 12:54:48;;;;;;;1.30;0.65;;;16.60;79.80;;;;;;5038999;28;20121;-73
2021/03/06 12:57:15;;;;;;;0.75;0.52;;;16.70;79.90;;;;;;5078486;28;20043;-73
2021/03/06 12:59:43;;;;;;;1.52;0.57;;;16.80;79.40;;;;;;5036829;28;20444;-73